createdAt,value
2022-10-16T02:12:40.520Z,7.90
2022-10-16T02:15:28.375Z,6.97
2022-10-16T02:18:17.720Z,8.23
2022-10-16T02:21:15.763Z,7.03
2022-10-16T02:24:10.464Z,8.65
2022-10-16T02:27:05.777Z,6.80
2022-10-16T02:30:00.744Z,7.88
2022-10-16T02:32:51.010Z,6.88
2022-10-16T02:35:40.827Z,7.03
2022-10-16T02:38:29.774Z,6.60
2022-10-16T02:41:17.758Z,7.13
2022-10-16T02:44:05.927Z,6.63
2022-10-16T02:46:53.843Z,7.63
2022-10-16T02:49:41.758Z,8.00
2022-10-16T02:52:30.656Z,7.85
2022-10-16T02:55:18.581Z,8.63
2022-10-16T02:58:06.247Z,10.50
2022-10-16T03:00:54.314Z,10.75
2022-10-16T03:03:41.987Z,8.45
2022-10-16T03:06:29.945Z,9.88
2022-10-16T03:09:19.440Z,8.82
2022-10-16T03:12:07.756Z,9.07
2022-10-16T03:14:55.366Z,9.02
2022-10-16T03:17:43.218Z,8.88
2022-10-16T03:20:31.710Z,8.70
2022-10-16T03:23:19.642Z,9.07
2022-10-16T03:26:08.698Z,8.75
2022-10-16T03:28:56.673Z,9.50
2022-10-16T03:31:44.512Z,8.77
2022-10-16T03:34:33.032Z,9.02
2022-10-16T03:37:20.967Z,8.82
2022-10-16T03:40:09.598Z,9.48
2022-10-16T03:42:58.739Z,9.02
2022-10-16T03:45:46.638Z,8.43
2022-10-16T03:48:34.395Z,8.90
2022-10-16T03:51:21.888Z,9.40
2022-10-16T03:54:09.554Z,8.88
2022-10-16T03:56:57.091Z,8.20
2022-10-16T03:59:46.056Z,8.90
2022-10-16T04:02:33.970Z,8.95
2022-10-16T04:05:21.873Z,7.90
2022-10-16T04:08:09.848Z,8.52
2022-10-16T04:10:57.497Z,8.00
2022-10-16T04:13:45.219Z,7.57
2022-10-16T04:16:34.520Z,7.88
2022-10-16T04:19:22.233Z,8.05
2022-10-16T04:22:10.037Z,7.80
2022-10-16T04:25:00.659Z,8.38
2022-10-16T04:27:48.644Z,7.27
2022-10-16T04:36:13.596Z,7.90
2022-10-16T04:39:01.594Z,8.20
2022-10-16T04:41:49.469Z,8.77
2022-10-16T04:44:37.477Z,7.85
2022-10-16T04:47:25.717Z,8.15
2022-10-16T04:50:15.173Z,8.30
2022-10-16T04:53:21.324Z,9.35
2022-10-16T04:56:08.912Z,8.23
2022-10-16T04:58:56.524Z,8.82
2022-10-16T05:01:44.577Z,9.55
2022-10-16T05:04:32.116Z,8.65
2022-10-16T05:07:21.209Z,9.68
2022-10-16T05:10:09.682Z,9.32
2022-10-16T05:12:57.435Z,9.55
2022-10-16T05:15:50.190Z,9.20
2022-10-16T05:18:37.848Z,9.02
2022-10-16T05:21:25.655Z,8.55
2022-10-16T05:24:15.217Z,8.65
2022-10-16T05:27:02.885Z,7.50
2022-10-16T05:29:51.218Z,7.65
2022-10-16T05:32:38.927Z,9.05
2022-10-16T05:35:26.946Z,8.55
2022-10-16T05:38:14.718Z,8.10
2022-10-16T05:41:04.135Z,9.90
2022-10-16T05:43:51.701Z,10.18
2022-10-16T05:46:39.197Z,9.23
2022-10-16T05:49:27.114Z,9.32
2022-10-16T05:52:14.691Z,9.35
2022-10-16T05:55:02.584Z,10.40
2022-10-16T05:57:52.405Z,9.55
2022-10-16T06:31:30.198Z,13.52
2022-10-16T06:37:05.730Z,12.27
2022-10-16T06:39:54.397Z,13.45
2022-10-16T06:42:42.566Z,11.93
2022-10-16T06:45:30.394Z,12.05
2022-10-16T06:48:19.745Z,10.73
2022-10-16T06:56:55.611Z,10.55
2022-10-16T06:59:46.844Z,11.05
2022-10-16T07:02:34.883Z,11.27
2022-10-16T07:05:24.155Z,11.10
2022-10-16T07:08:12.437Z,10.75
2022-10-16T07:11:03.783Z,11.20
2022-10-16T07:13:56.063Z,10.60
2022-10-16T07:16:44.135Z,11.23
2022-10-16T07:19:34.286Z,10.85
2022-10-16T07:22:24.206Z,11.02
2022-10-16T07:25:12.611Z,10.90
2022-10-16T07:28:00.419Z,10.82
2022-10-16T07:30:48.019Z,11.15
2022-10-16T09:04:22.171Z,4.28
2022-10-16T09:15:53.148Z,3.78
2022-10-16T10:15:20.927Z,3.85
2022-10-16T10:18:20.591Z,3.50
2022-10-16T10:21:15.494Z,3.58
2022-10-16T15:47:46.616Z,5.40
2022-10-16T15:50:35.194Z,5.65
2022-10-16T15:53:23.049Z,5.55
2022-10-16T15:56:13.166Z,5.55
2022-10-16T15:59:01.312Z,5.85
2022-10-16T16:01:49.328Z,6.15
2022-10-16T16:04:44.907Z,6.88
2022-10-16T16:07:35.125Z,6.78
2022-10-16T16:10:23.178Z,5.95
2022-10-16T16:13:12.502Z,6.55
2022-10-16T16:16:00.139Z,6.57
2022-10-16T16:21:37.759Z,7.78
2022-10-16T16:24:25.681Z,6.88
2022-10-16T16:27:14.602Z,9.50
2022-10-16T16:30:05.549Z,10.00
2022-10-16T16:32:53.477Z,11.45
2022-10-16T16:35:41.700Z,11.60
2022-10-16T16:38:30.337Z,11.80
2022-10-16T16:41:20.223Z,12.15
2022-10-16T16:44:11.057Z,12.45
2022-10-16T16:47:00.243Z,12.00
2022-10-16T16:49:48.404Z,13.05
2022-10-16T16:52:36.380Z,13.35
2022-10-16T16:55:24.158Z,14.13
2022-10-16T16:58:11.904Z,14.88
2022-10-16T17:01:18.983Z,14.27
2022-10-16T17:04:09.845Z,18.23
2022-10-16T17:06:58.129Z,18.35
2022-10-16T17:09:45.975Z,16.52
2022-10-16T17:12:34.203Z,14.75
2022-10-16T17:15:21.961Z,15.95
2022-10-16T17:18:09.614Z,15.43
2022-10-16T17:21:01.807Z,14.77
2022-10-16T17:23:52.712Z,15.25
2022-10-16T17:26:43.536Z,14.32
2022-10-16T17:29:31.142Z,14.50
2022-10-16T17:32:20.753Z,14.30
2022-10-16T17:35:10.045Z,14.07
2022-10-16T17:37:59.403Z,13.48
2022-10-16T17:40:47.155Z,14.10
2022-10-16T17:43:35.049Z,13.98
2022-10-16T17:46:24.721Z,14.15
2022-10-16T17:49:14.835Z,15.48
2022-10-16T17:52:03.168Z,17.60
2022-10-16T17:54:53.350Z,16.15
2022-10-16T17:57:41.304Z,15.90
2022-10-16T18:00:30.189Z,18.02
2022-10-16T18:03:17.993Z,17.13
2022-10-16T18:09:01.634Z,16.80
2022-10-16T18:11:55.585Z,17.00
2022-10-16T18:14:43.260Z,17.15
2022-10-16T18:51:12.205Z,17.75
2022-10-16T18:54:01.503Z,18.40
2022-10-16T18:56:49.125Z,18.50
2022-10-16T18:59:38.698Z,16.58
2022-10-16T19:13:39.346Z,16.23
2022-10-16T19:16:29.859Z,16.05
2022-10-16T19:19:20.008Z,16.30
2022-10-16T19:22:28.055Z,15.35
2022-10-16T19:25:16.181Z,15.52
2022-10-16T19:28:07.534Z,15.35
2022-10-16T19:30:55.374Z,15.13
2022-10-16T19:33:43.407Z,15.50
2022-10-16T19:36:33.559Z,16.80
2022-10-16T19:39:21.592Z,17.10
2022-10-16T19:42:09.503Z,17.75
2022-10-16T19:44:57.191Z,15.98
2022-10-16T20:24:20.848Z,15.75
2022-10-16T20:27:08.646Z,19.15
2022-10-16T20:29:57.870Z,18.67
2022-10-16T20:32:46.309Z,16.65
2022-10-16T20:35:37.695Z,15.70
2022-10-16T20:41:15.402Z,15.75
2022-10-16T20:44:04.446Z,14.50
2022-10-16T20:46:56.270Z,14.50
2022-10-16T20:49:44.104Z,16.20
2022-10-16T20:52:34.356Z,15.27
2022-10-16T20:55:22.080Z,15.57
2022-10-16T20:58:10.050Z,15.30
2022-10-16T21:32:08.107Z,15.07
2022-10-16T21:34:56.194Z,15.85
2022-10-16T21:37:49.841Z,14.35
2022-10-16T21:40:37.705Z,14.85
2022-10-16T21:43:25.576Z,15.05
2022-10-16T21:46:13.854Z,14.43
2022-10-16T21:49:05.038Z,14.60
2022-10-16T21:51:52.839Z,15.63
2022-10-16T21:54:42.395Z,16.02
2022-10-16T21:57:30.478Z,15.25
2022-10-16T22:00:18.480Z,14.75
2022-10-16T22:03:05.864Z,15.20
2022-10-16T22:05:53.709Z,14.68
2022-10-16T22:08:41.732Z,13.18
2022-10-16T22:11:36.691Z,14.48
2022-10-16T22:14:27.193Z,14.45
2022-10-16T22:17:15.266Z,13.32
2022-10-16T22:20:02.808Z,12.55
2022-10-16T22:22:50.679Z,14.77
2022-10-16T22:25:38.969Z,13.07
2022-10-16T22:28:27.994Z,13.18
2022-10-16T22:31:16.338Z,13.65
2022-10-16T22:34:05.441Z,13.48
2022-10-16T22:36:53.311Z,13.98
2022-10-16T22:39:41.240Z,13.88
2022-10-16T22:42:29.707Z,13.70
2022-10-16T22:45:18.765Z,13.63
2022-10-16T22:48:07.258Z,12.93
2022-10-16T22:50:55.040Z,14.05
2022-10-16T22:53:43.389Z,12.43
2022-10-16T22:56:30.925Z,13.35
2022-10-16T22:59:18.666Z,12.25
2022-10-16T23:02:08.069Z,12.40
2022-10-16T23:04:55.883Z,15.50
2022-10-16T23:07:44.774Z,15.18
2022-10-16T23:10:32.367Z,15.07
2022-10-16T23:13:20.177Z,14.68
2022-10-16T23:16:08.737Z,15.90
2022-10-16T23:18:57.583Z,15.27
2022-10-16T23:21:46.075Z,16.25
2022-10-16T23:24:34.215Z,16.63
2022-10-16T23:27:22.092Z,16.35
2022-10-16T23:30:13.135Z,20.08
2022-10-16T23:33:00.676Z,27.92
2022-10-16T23:35:49.958Z,26.15
2022-10-16T23:38:38.332Z,25.73
2022-10-16T23:41:26.028Z,23.70
2022-10-16T23:44:13.623Z,21.52
2022-10-16T23:47:01.789Z,18.55
2022-10-16T23:49:49.718Z,16.55
2022-10-16T23:52:39.115Z,16.30
2022-10-16T23:55:26.754Z,16.17
2022-10-16T23:58:14.480Z,15.90
